Time;durP1;ratioP1;P1;durP2;ratioP2;P2;SDS_P1;SDS_P2;PMS_P1;PMS_P2;Temp;Humidity;BMP_temperature;BMP_pressure;BME280_temperature;BME280_humidity;BME280_pressure;Samples;Min_cycle;Max_cycle;Signal;HPM_P1;HPM_P2
2021/07/16 00:00:16;;;;;;;10.68;9.60;;;;;;;;;;5060478;28;20378;-72
2021/07/16 00:02:43;;;;;;;11.18;9.98;;;;;;;;;;5062655;28;20047;-73
2021/07/16 00:05:10;;;;;;;11.52;10.43;;;;;;;;;;5059328;28;20028;-72
2021/07/16 00:07:37;;;;;;;11.50;10.30;;;;;;;;;;5067168;28;20041;-72
2021/07/16 00:10:04;;;;;;;11.13;10.02;;;;;;;;;;5056187;28;20057;-72
2021/07/16 00:12:31;;;;;;;11.98;10.80;;;;;;;;;;5057607;28;22349;-73
2021/07/16 00:14:57;;;;;;;12.07;10.95;;;;;;;;;;5060770;28;20476;-73
2021/07/16 00:17:23;;;;;;;12.05;10.85;;;;;;;;;;5059390;28;20049;-73
2021/07/16 00:19:50;;;;;;;11.15;10.00;;;;;;;;;;5055182;28;20072;-72
2021/07/16 00:22:16;;;;;;;12.18;10.98;;;;;;;;;;5062545;28;20649;-73
2021/07/16 00:24:42;;;;;;;13.35;12.00;;;;;;;;;;5065622;28;20063;-72
2021/07/16 00:27:09;;;;;;;12.43;11.23;;;;;;;;;;5061949;28;20649;-72
2021/07/16 00:29:35;;;;;;;12.00;10.80;;;;;;;;;;5060935;28;20072;-73
2021/07/16 00:32:02;;;;;;;11.88;10.77;;;;;;;;;;5046647;28;20072;-72
2021/07/16 00:34:28;;;;;;;11.90;10.80;;;;;;;;;;5065383;28;20064;-73
2021/07/16 00:36:55;;;;;;;13.68;11.05;;;;;;;;;;5064344;28;20503;-72
2021/07/16 00:39:21;;;;;;;12.48;11.18;;;;;;;;;;5066761;28;20162;-73
2021/07/16 00:41:48;;;;;;;12.45;11.30;;;;;;;;;;5057860;28;20057;-72
2021/07/16 00:44:14;;;;;;;12.15;10.95;;;;;;;;;;5056419;28;20064;-73
2021/07/16 00:46:41;;;;;;;12.82;11.15;;;;;;;;;;5055688;28;20101;-72
2021/07/16 00:49:07;;;;;;;11.57;10.38;;;;;;;;;;5061655;28;20064;-72
2021/07/16 00:51:34;;;;;;;12.13;10.82;;;;;;;;;;5063111;28;20713;-72
2021/07/16 00:54:00;;;;;;;12.65;11.15;;;;;;;;;;5062732;28;20605;-72
2021/07/16 00:56:26;;;;;;;13.02;10.82;;;;;;;;;;5061732;28;20069;-72
2021/07/16 00:58:53;;;;;;;12.27;11.07;;;;;;;;;;5063814;28;20665;-72
2021/07/16 01:01:20;;;;;;;12.18;10.32;;;;;;;;;;5052503;28;20052;-73
2021/07/16 01:03:48;;;;;;;12.30;11.10;;;;;;;;;;5052702;28;20060;-72
2021/07/16 01:06:14;;;;;;;11.82;10.63;;;;;;;;;;5053729;28;20075;-72
2021/07/16 01:08:41;;;;;;;11.95;10.85;;;;;;;;;;5053953;28;20056;-72
2021/07/16 01:11:07;;;;;;;11.75;10.55;;;;;;;;;;5063773;28;20072;-72
2021/07/16 01:13:34;;;;;;;11.90;10.65;;;;;;;;;;5056882;28;20057;-72
2021/07/16 01:16:00;;;;;;;13.25;10.65;;;;;;;;;;5062298;28;20431;-72
2021/07/16 01:18:27;;;;;;;12.80;10.93;;;;;;;;;;5064278;28;20048;-73
2021/07/16 01:20:53;;;;;;;12.40;11.13;;;;;;;;;;5064519;28;20511;-72
2021/07/16 01:23:24;;;;;;;11.32;10.15;;;;;;;;;;5059654;28;20509;-73
2021/07/16 01:25:52;;;;;;;10.98;9.70;;;;;;;;;;5058088;28;20464;-72
2021/07/16 01:28:18;;;;;;;11.68;10.55;;;;;;;;;;5065024;28;20064;-73
2021/07/16 01:30:46;;;;;;;11.70;10.50;;;;;;;;;;5050341;28;21464;-73
2021/07/16 01:33:13;;;;;;;11.68;10.30;;;;;;;;;;5060551;28;20057;-74
2021/07/16 01:35:40;;;;;;;11.27;10.18;;;;;;;;;;5064058;28;20060;-72
2021/07/16 01:38:06;;;;;;;11.35;10.20;;;;;;;;;;5060834;28;20141;-72
2021/07/16 01:40:37;;;;;;;10.77;9.68;;;;;;;;;;5061805;28;20483;-72
2021/07/16 01:43:05;;;;;;;11.98;10.85;;;;;;;;;;5058902;28;20597;-72
2021/07/16 01:45:38;;;;;;;12.75;10.98;;;;;;;;;;5063442;28;20462;-72
2021/07/16 01:48:09;;;;;;;12.18;10.98;;;;;;;;;;5036854;28;20072;-72
2021/07/16 01:50:36;;;;;;;11.85;10.65;;;;;;;;;;5068010;28;20055;-72
2021/07/16 01:53:03;;;;;;;13.98;11.57;;;;;;;;;;5058121;28;20068;-72
2021/07/16 01:55:30;;;;;;;12.27;11.02;;;;;;;;;;5061059;28;20052;-72
2021/07/16 01:57:58;;;;;;;12.93;11.73;;;;;;;;;;5055822;28;20052;-72
2021/07/16 02:00:29;;;;;;;12.00;10.77;;;;;;;;;;5060174;28;20060;-72
2021/07/16 02:02:56;;;;;;;14.43;11.88;;;;;;;;;;5052001;28;20053;-73
2021/07/16 02:05:23;;;;;;;13.82;11.75;;;;;;;;;;5049985;28;20178;-72
2021/07/16 02:07:51;;;;;;;13.45;12.10;;;;;;;;;;5063405;28;20086;-73
2021/07/16 02:10:18;;;;;;;13.35;12.05;;;;;;;;;;5059689;28;20121;-71
2021/07/16 02:12:45;;;;;;;13.93;12.35;;;;;;;;;;5059768;28;20063;-70
2021/07/16 02:15:16;;;;;;;12.57;11.27;;;;;;;;;;5051028;28;20032;-72
2021/07/16 02:17:42;;;;;;;;;;;;;;;;;;5041899;28;21288;-72
2021/07/16 02:20:19;;;;;;;13.60;12.23;;;;;;;;;;5061165;28;19955;-72
2021/07/16 02:22:45;;;;;;;14.52;13.00;;;;;;;;;;5064582;28;20040;-72
2021/07/16 02:25:12;;;;;;;12.77;11.48;;;;;;;;;;5062041;28;20068;-73
2021/07/16 02:27:39;;;;;;;13.07;11.77;;;;;;;;;;5057185;28;20452;-73
2021/07/16 02:30:06;;;;;;;13.95;12.45;;;;;;;;;;5061144;28;20056;-72
2021/07/16 02:32:33;;;;;;;13.63;12.23;;;;;;;;;;5064312;28;20573;-72
2021/07/16 02:34:59;;;;;;;14.07;12.57;;;;;;;;;;5052000;28;20084;-72
2021/07/16 02:37:25;;;;;;;13.82;12.27;;;;;;;;;;5052551;28;20048;-72
2021/07/16 02:39:52;;;;;;;15.10;13.50;;;;;;;;;;5064500;28;20052;-72
2021/07/16 02:42:18;;;;;;;14.70;13.15;;;;;;;;;;5054524;28;20060;-73
2021/07/16 02:44:45;;;;;;;16.75;13.85;;;;;;;;;;5060723;28;20064;-73
2021/07/16 02:47:11;;;;;;;14.40;12.88;;;;;;;;;;5063878;28;20485;-76
2021/07/16 02:49:38;;;;;;;16.38;13.90;;;;;;;;;;5035385;28;20048;-72
2021/07/16 02:52:04;;;;;;;15.48;13.65;;;;;;;;;;5057813;28;20196;-73
2021/07/16 02:54:31;;;;;;;18.25;15.25;;;;;;;;;;5059727;28;20586;-73
2021/07/16 02:56:57;;;;;;;16.75;15.05;;;;;;;;;;5058422;28;20079;-72
2021/07/16 02:59:24;;;;;;;17.13;14.77;;;;;;;;;;5056587;28;20069;-72
2021/07/16 03:01:57;;;;;;;19.55;16.33;;;;;;;;;;5052907;28;20056;-72
2021/07/16 03:04:24;;;;;;;16.73;14.52;;;;;;;;;;5054982;28;20063;-72
2021/07/16 03:06:50;;;;;;;17.67;15.70;;;;;;;;;;5061915;28;20068;-72
2021/07/16 03:09:17;;;;;;;18.15;15.45;;;;;;;;;;5055991;28;20458;-72
2021/07/16 03:11:44;;;;;;;19.42;15.45;;;;;;;;;;5063510;28;20769;-72
2021/07/16 03:14:10;;;;;;;18.50;15.05;;;;;;;;;;5059732;28;20088;-72
2021/07/16 03:16:36;;;;;;;17.38;14.88;;;;;;;;;;5053299;28;20069;-72
2021/07/16 03:19:04;;;;;;;17.38;14.52;;;;;;;;;;5056379;28;20056;-72
2021/07/16 03:21:32;;;;;;;16.48;13.77;;;;;;;;;;5058642;28;20520;-72
2021/07/16 03:23:58;;;;;;;17.15;13.85;;;;;;;;;;5043505;28;20586;-72
2021/07/16 03:26:25;;;;;;;16.20;13.73;;;;;;;;;;5043824;28;20036;-72
2021/07/16 03:28:51;;;;;;;16.52;13.43;;;;;;;;;;5055274;28;20078;-72
2021/07/16 03:31:17;;;;;;;16.05;13.02;;;;;;;;;;5056459;28;20706;-73
2021/07/16 03:33:44;;;;;;;15.95;12.93;;;;;;;;;;5060342;28;20068;-72
2021/07/16 03:36:10;;;;;;;14.70;11.85;;;;;;;;;;5055412;28;20060;-72
2021/07/16 03:38:37;;;;;;;14.40;12.50;;;;;;;;;;5051988;28;20056;-73
2021/07/16 03:41:07;;;;;;;13.68;12.27;;;;;;;;;;5061027;28;20052;-72
2021/07/16 03:43:34;;;;;;;15.85;11.88;;;;;;;;;;5057992;28;20114;-72
2021/07/16 03:46:00;;;;;;;14.52;12.05;;;;;;;;;;5055695;28;20647;-72
2021/07/16 03:48:27;;;;;;;12.23;10.98;;;;;;;;;;5057334;28;20071;-72
2021/07/16 03:50:54;;;;;;;12.07;10.85;;;;;;;;;;5063282;28;20037;-73
2021/07/16 03:53:21;;;;;;;13.05;11.48;;;;;;;;;;5050324;28;20067;-73
2021/07/16 03:55:47;;;;;;;12.95;11.27;;;;;;;;;;5060251;28;20048;-72
2021/07/16 03:58:13;;;;;;;12.60;10.80;;;;;;;;;;5055494;28;20040;-73
2021/07/16 04:00:40;;;;;;;14.25;11.48;;;;;;;;;;5059593;28;20067;-72
2021/07/16 04:03:06;;;;;;;13.95;11.50;;;;;;;;;;5060781;28;20067;-72
2021/07/16 04:05:33;;;;;;;14.18;11.20;;;;;;;;;;5058243;28;20537;-73
2021/07/16 04:08:07;;;;;;;12.13;10.88;;;;;;;;;;5034159;28;20079;-72
2021/07/16 04:10:34;;;;;;;12.32;11.13;;;;;;;;;;5053460;28;20060;-72
2021/07/16 04:13:03;;;;;;;12.20;10.90;;;;;;;;;;5056100;28;20067;-72
2021/07/16 04:15:30;;;;;;;13.10;11.38;;;;;;;;;;5054666;28;20063;-72
2021/07/16 04:17:57;;;;;;;12.15;10.57;;;;;;;;;;5055640;28;20063;-72
2021/07/16 04:20:24;;;;;;;12.25;10.95;;;;;;;;;;5054342;28;20053;-72
2021/07/16 04:22:50;;;;;;;15.27;11.23;;;;;;;;;;5039009;28;20049;-73
2021/07/16 04:25:18;;;;;;;13.10;11.35;;;;;;;;;;5059428;28;20060;-72
2021/07/16 04:27:46;;;;;;;13.57;10.98;;;;;;;;;;5053444;28;20061;-72
2021/07/16 04:30:12;;;;;;;12.80;10.23;;;;;;;;;;5057060;28;20044;-76
2021/07/16 04:32:39;;;;;;;13.93;11.70;;;;;;;;;;5039708;28;20461;-73
2021/07/16 04:35:06;;;;;;;11.68;9.73;;;;;;;;;;5061931;28;20060;-72
2021/07/16 04:37:33;;;;;;;12.23;10.82;;;;;;;;;;5066129;28;20036;-72
2021/07/16 04:39:59;;;;;;;12.63;9.48;;;;;;;;;;5053116;28;20045;-73
2021/07/16 04:42:25;;;;;;;12.77;10.02;;;;;;;;;;5057531;28;20508;-73
2021/07/16 04:44:54;;;;;;;11.70;9.73;;;;;;;;;;5060181;28;20068;-72
2021/07/16 04:47:20;;;;;;;11.18;10.07;;;;;;;;;;5059901;28;20523;-72
2021/07/16 04:49:46;;;;;;;11.70;10.50;;;;;;;;;;5062126;28;20065;-71
2021/07/16 04:52:13;;;;;;;11.15;9.95;;;;;;;;;;5056689;28;20069;-73
2021/07/16 04:54:40;;;;;;;13.55;10.65;;;;;;;;;;5058803;28;20069;-72
2021/07/16 04:57:08;;;;;;;12.68;10.48;;;;;;;;;;5053073;28;20059;-72
2021/07/16 04:59:35;;;;;;;12.48;10.68;;;;;;;;;;5049764;28;20078;-72
2021/07/16 05:02:02;;;;;;;11.02;9.93;;;;;;;;;;5058948;28;20060;-72
2021/07/16 05:04:28;;;;;;;14.50;11.05;;;;;;;;;;5051616;28;20103;-72
2021/07/16 05:06:55;;;;;;;13.40;10.77;;;;;;;;;;5058743;28;21705;-72
2021/07/16 05:09:23;;;;;;;11.25;9.88;;;;;;;;;;5057367;28;20064;-72
2021/07/16 05:11:49;;;;;;;11.82;10.10;;;;;;;;;;5060464;28;20060;-72
2021/07/16 05:14:16;;;;;;;12.35;9.82;;;;;;;;;;5054109;28;20071;-72
2021/07/16 05:16:42;;;;;;;12.85;11.35;;;;;;;;;;5064561;28;20519;-72
2021/07/16 05:19:09;;;;;;;11.48;10.07;;;;;;;;;;5066566;28;20068;-72
2021/07/16 05:21:35;;;;;;;12.48;10.68;;;;;;;;;;5056648;28;20064;-72
2021/07/16 05:24:02;;;;;;;11.38;9.98;;;;;;;;;;5060093;28;20052;-72
2021/07/16 05:26:28;;;;;;;15.27;10.73;;;;;;;;;;5053406;28;20061;-72
2021/07/16 05:28:55;;;;;;;11.35;9.52;;;;;;;;;;5050132;28;20501;-73
2021/07/16 05:31:21;;;;;;;12.52;10.15;;;;;;;;;;5062290;28;20059;-72
2021/07/16 05:33:48;;;;;;;12.13;10.23;;;;;;;;;;5054719;28;20057;-72
2021/07/16 05:36:14;;;;;;;13.45;10.45;;;;;;;;;;5055314;28;20064;-73
2021/07/16 05:38:40;;;;;;;12.10;10.35;;;;;;;;;;5055836;28;20091;-72
2021/07/16 05:41:08;;;;;;;11.38;10.18;;;;;;;;;;5065421;28;20083;-73
2021/07/16 05:43:35;;;;;;;12.73;10.80;;;;;;;;;;5050351;28;20055;-72
2021/07/16 05:46:02;;;;;;;13.70;10.45;;;;;;;;;;5053442;28;20056;-72
2021/07/16 05:48:31;;;;;;;12.55;10.25;;;;;;;;;;5058324;28;20126;-71
2021/07/16 05:50:58;;;;;;;13.88;10.77;;;;;;;;;;5054534;28;20114;-71
2021/07/16 05:53:24;;;;;;;13.95;10.93;;;;;;;;;;5054362;28;20064;-71
2021/07/16 05:55:51;;;;;;;13.20;10.95;;;;;;;;;;5061013;28;20495;-71
2021/07/16 05:58:17;;;;;;;13.52;11.65;;;;;;;;;;5052097;28;20071;-72
2021/07/16 06:00:44;;;;;;;14.50;12.18;;;;;;;;;;5038341;28;20137;-71
2021/07/16 06:03:10;;;;;;;13.57;12.18;;;;;;;;;;5055280;28;20038;-72
2021/07/16 06:05:37;;;;;;;14.73;11.18;;;;;;;;;;5052601;28;20792;-72
2021/07/16 06:08:04;;;;;;;14.88;11.25;;;;;;;;;;5057079;28;20521;-73
2021/07/16 06:10:31;;;;;;;12.77;11.45;;;;;;;;;;5053348;28;20068;-73
2021/07/16 06:12:57;;;;;;;13.93;11.85;;;;;;;;;;5042157;28;20057;-72
2021/07/16 06:15:24;;;;;;;14.40;11.77;;;;;;;;;;5059548;28;20075;-73
2021/07/16 06:17:50;;;;;;;13.88;12.23;;;;;;;;;;5054762;28;20056;-73
2021/07/16 06:20:17;;;;;;;14.65;11.68;;;;;;;;;;5057222;28;20470;-73
2021/07/16 06:22:44;;;;;;;13.07;11.73;;;;;;;;;;5058629;28;20516;-73
2021/07/16 06:25:11;;;;;;;13.48;11.20;;;;;;;;;;5056635;28;20053;-73
2021/07/16 06:27:39;;;;;;;14.82;12.13;;;;;;;;;;5052167;28;22250;-73
2021/07/16 06:30:06;;;;;;;15.15;10.90;;;;;;;;;;5035315;28;20067;-72
2021/07/16 06:32:32;;;;;;;13.18;11.20;;;;;;;;;;5049322;28;20136;-72
2021/07/16 06:34:59;;;;;;;11.90;10.57;;;;;;;;;;5059288;28;20452;-73
2021/07/16 06:37:25;;;;;;;14.52;11.15;;;;;;;;;;5033794;28;20072;-73
2021/07/16 06:39:51;;;;;;;13.63;11.55;;;;;;;;;;5054813;28;20060;-73
2021/07/16 06:42:18;;;;;;;12.48;11.18;;;;;;;;;;5038450;28;20444;-73
2021/07/16 06:44:44;;;;;;;13.07;11.18;;;;;;;;;;5056052;28;20056;-72
2021/07/16 06:47:11;;;;;;;12.35;11.07;;;;;;;;;;5057933;28;20041;-73
2021/07/16 06:49:37;;;;;;;12.38;11.10;;;;;;;;;;5052452;28;20614;-72
2021/07/16 06:52:04;;;;;;;11.25;10.13;;;;;;;;;;5051817;28;20036;-73
2021/07/16 06:54:30;;;;;;;14.50;10.85;;;;;;;;;;5054817;28;20064;-73
2021/07/16 06:56:57;;;;;;;11.77;10.57;;;;;;;;;;5051579;28;20052;-73
2021/07/16 06:59:23;;;;;;;13.55;10.98;;;;;;;;;;5050103;28;20063;-73
2021/07/16 07:01:50;;;;;;;12.63;10.88;;;;;;;;;;5056309;28;20079;-73
2021/07/16 07:04:17;;;;;;;12.15;10.45;;;;;;;;;;5056589;28;20065;-72
2021/07/16 07:06:43;;;;;;;12.05;10.85;;;;;;;;;;5051321;28;20069;-72
2021/07/16 07:09:10;;;;;;;11.75;10.55;;;;;;;;;;5051168;28;20040;-72
2021/07/16 07:11:36;;;;;;;12.63;10.75;;;;;;;;;;5054599;28;20064;-71
2021/07/16 07:14:03;;;;;;;13.00;10.80;;;;;;;;;;5031166;28;20047;-72
2021/07/16 07:16:30;;;;;;;11.80;9.90;;;;;;;;;;5052316;28;20107;-73
2021/07/16 07:18:56;;;;;;;12.35;11.05;;;;;;;;;;5053600;28;20649;-72
2021/07/16 07:21:22;;;;;;;11.90;10.80;;;;;;;;;;5048550;28;20068;-72
2021/07/16 07:23:49;;;;;;;12.88;11.57;;;;;;;;;;5053312;28;20061;-72
2021/07/16 07:26:15;;;;;;;12.55;10.95;;;;;;;;;;5051989;28;20186;-73
2021/07/16 07:28:42;;;;;;;13.82;10.98;;;;;;;;;;5056195;28;20126;-72
2021/07/16 07:31:08;;;;;;;13.63;10.57;;;;;;;;;;5057889;28;20392;-72
2021/07/16 07:33:34;;;;;;;12.57;11.00;;;;;;;;;;5053046;28;20052;-72
2021/07/16 07:36:01;;;;;;;11.70;10.50;;;;;;;;;;5053614;28;20504;-72
2021/07/16 07:38:31;;;;;;;12.88;11.20;;;;;;;;;;5054633;28;20119;-73
2021/07/16 07:40:57;;;;;;;12.50;10.88;;;;;;;;;;5052784;28;20060;-72
2021/07/16 07:43:24;;;;;;;13.40;10.95;;;;;;;;;;5053079;28;20053;-73
2021/07/16 07:45:51;;;;;;;14.98;10.98;;;;;;;;;;5056133;28;20059;-72
2021/07/16 07:48:17;;;;;;;11.85;10.52;;;;;;;;;;5053055;28;20060;-71
2021/07/16 07:50:44;;;;;;;12.07;10.77;;;;;;;;;;5055422;28;20067;-72
2021/07/16 07:53:10;;;;;;;11.35;10.23;;;;;;;;;;5058640;28;20057;-72
2021/07/16 07:55:37;;;;;;;14.32;11.95;;;;;;;;;;5061868;28;20109;-73
2021/07/16 07:58:03;;;;;;;12.05;10.80;;;;;;;;;;5054474;28;20096;-72
2021/07/16 08:00:30;;;;;;;13.25;10.35;;;;;;;;;;5053815;28;20067;-73
2021/07/16 08:02:56;;;;;;;12.35;11.05;;;;;;;;;;5056864;28;20044;-72
2021/07/16 08:05:23;;;;;;;11.50;10.30;;;;;;;;;;5059257;28;20131;-74
2021/07/16 08:07:49;;;;;;;15.68;11.02;;;;;;;;;;5052674;28;20060;-72
2021/07/16 08:10:17;;;;;;;13.68;11.30;;;;;;;;;;5060754;28;20500;-74
2021/07/16 08:12:43;;;;;;;12.02;10.48;;;;;;;;;;5054598;28;20044;-73
2021/07/16 08:15:11;;;;;;;11.88;10.60;;;;;;;;;;5058849;28;20057;-73
2021/07/16 08:17:37;;;;;;;12.23;10.60;;;;;;;;;;5055434;28;20079;-73
2021/07/16 08:20:05;;;;;;;11.48;10.27;;;;;;;;;;5054697;28;20064;-73
2021/07/16 08:22:31;;;;;;;13.93;11.10;;;;;;;;;;5056762;28;20429;-73
2021/07/16 08:24:57;;;;;;;11.60;10.40;;;;;;;;;;5052173;28;20064;-71
2021/07/16 08:27:24;;;;;;;11.30;10.10;;;;;;;;;;5054973;28;20072;-72
2021/07/16 08:29:50;;;;;;;12.32;11.02;;;;;;;;;;5056654;28;20067;-72
2021/07/16 08:32:17;;;;;;;19.67;10.82;;;;;;;;;;5053349;28;20064;-73
2021/07/16 08:34:43;;;;;;;13.65;10.95;;;;;;;;;;5054974;28;20117;-72
2021/07/16 08:37:09;;;;;;;12.35;11.00;;;;;;;;;;5057134;28;20081;-72
2021/07/16 08:39:36;;;;;;;11.80;10.43;;;;;;;;;;5056039;28;20515;-73
2021/07/16 08:42:03;;;;;;;12.88;10.43;;;;;;;;;;5056913;28;20064;-72
2021/07/16 08:44:30;;;;;;;11.73;10.25;;;;;;;;;;5057989;28;20076;-74
2021/07/16 08:46:57;;;;;;;18.27;10.88;;;;;;;;;;5055154;28;20059;-73
2021/07/16 08:49:25;;;;;;;10.80;9.65;;;;;;;;;;5053507;28;20540;-74
2021/07/16 08:51:51;;;;;;;11.80;10.60;;;;;;;;;;5053190;28;20052;-73
2021/07/16 08:54:18;;;;;;;11.88;10.70;;;;;;;;;;5059309;28;20067;-74
2021/07/16 08:56:45;;;;;;;11.40;10.20;;;;;;;;;;5054212;28;20476;-74
2021/07/16 08:59:14;;;;;;;12.27;10.52;;;;;;;;;;5056562;28;20556;-73
2021/07/16 09:01:46;;;;;;;13.68;10.52;;;;;;;;;;5057184;28;21462;-73
2021/07/16 09:04:13;;;;;;;11.02;9.93;;;;;;;;;;5052487;28;20056;-74
2021/07/16 09:06:48;;;;;;;11.90;10.70;;;;;;;;;;5066356;28;20060;-73
2021/07/16 09:09:16;;;;;;;14.18;10.05;;;;;;;;;;5051207;28;20119;-73
2021/07/16 09:11:43;;;;;;;13.38;10.60;;;;;;;;;;5059596;28;20062;-74
2021/07/16 09:14:20;;;;;;;12.18;10.07;;;;;;;;;;5056917;28;20074;-73
2021/07/16 09:16:55;;;;;;;12.02;10.57;;;;;;;;;;5051891;28;20052;-73
2021/07/16 09:19:34;;;;;;;10.80;9.77;;;;;;;;;;5054437;28;20840;-73
2021/07/16 09:22:00;;;;;;;13.00;10.85;;;;;;;;;;5050977;28;20116;-73
2021/07/16 09:24:27;;;;;;;10.98;9.90;;;;;;;;;;5045695;28;20480;-73
2021/07/16 09:26:53;;;;;;;10.65;9.45;;;;;;;;;;5051536;28;20063;-74
2021/07/16 09:29:32;;;;;;;12.07;9.82;;;;;;;;;;5051617;28;20194;-74
2021/07/16 09:32:07;;;;;;;11.10;9.90;;;;;;;;;;5053229;28;20057;-73
2021/07/16 09:34:34;;;;;;;11.40;10.30;;;;;;;;;;5032698;28;20035;-79
2021/07/16 09:37:10;;;;;;;12.38;10.48;;;;;;;;;;5054555;28;20045;-83
2021/07/16 09:39:37;;;;;;;13.50;9.95;;;;;;;;;;5056263;28;20068;-80
2021/07/16 09:42:04;;;;;;;11.68;10.48;;;;;;;;;;5053004;28;20068;-79
2021/07/16 09:44:32;;;;;;;11.32;9.93;;;;;;;;;;5052731;28;20056;-78
2021/07/16 09:47:17;;;;;;;13.32;10.90;;;;;;;;;;5041437;28;20072;-78
2021/07/16 09:49:45;;;;;;;12.50;9.77;;;;;;;;;;5060786;28;20417;-78
2021/07/16 09:52:12;;;;;;;12.90;11.18;;;;;;;;;;5053450;28;20037;-77
2021/07/16 09:54:39;;;;;;;10.57;9.57;;;;;;;;;;5053609;28;20614;-77
2021/07/16 09:57:06;;;;;;;11.05;9.95;;;;;;;;;;5061199;28;20453;-77
2021/07/16 09:59:32;;;;;;;13.02;10.00;;;;;;;;;;5058750;28;20063;-78
2021/07/16 10:01:59;;;;;;;7.32;6.03;;;;;;;;;;5056928;28;20577;-77
2021/07/16 10:04:33;;;;;;;8.45;6.90;;;;;;;;;;5057153;28;20126;-75
2021/07/16 10:06:59;;;;;;;12.20;7.70;;;;;;;;;;5057468;28;20095;-76
2021/07/16 10:09:26;;;;;;;7.97;7.18;;;;;;;;;;5054966;28;20086;-75
2021/07/16 10:11:53;;;;;;;8.90;7.35;;;;;;;;;;5047098;28;20450;-76
2021/07/16 10:14:20;;;;;;;8.70;7.80;;;;;;;;;;5064282;28;20036;-76
2021/07/16 10:16:47;;;;;;;7.82;7.05;;;;;;;;;;5059566;28;20054;-76
2021/07/16 10:19:16;;;;;;;7.45;6.75;;;;;;;;;;5052556;28;20048;-76
2021/07/16 10:21:43;;;;;;;8.10;7.30;;;;;;;;;;5057737;28;21380;-76
2021/07/16 10:24:13;;;;;;;7.43;6.72;;;;;;;;;;5059816;28;20695;-78
2021/07/16 10:26:42;;;;;;;7.68;6.85;;;;;;;;;;5053191;28;21414;-80
2021/07/16 10:29:27;;;;;;;7.00;6.38;;;;;;;;;;5050160;28;20056;-75
2021/07/16 10:31:53;;;;;;;8.10;7.38;;;;;;;;;;5038932;28;20619;-78
2021/07/16 10:34:20;;;;;;;8.30;7.00;;;;;;;;;;5051795;28;20075;-77
2021/07/16 10:36:50;;;;;;;7.20;6.50;;;;;;;;;;5049855;28;20566;-76
2021/07/16 10:39:21;;;;;;;8.02;7.22;;;;;;;;;;5055397;28;20064;-76
2021/07/16 10:41:47;;;;;;;9.68;7.03;;;;;;;;;;5038352;28;20059;-77
2021/07/16 10:44:14;;;;;;;7.47;6.78;;;;;;;;;;5055355;28;20460;-77
2021/07/16 10:46:44;;;;;;;7.32;6.63;;;;;;;;;;5035585;28;21786;-76
2021/07/16 10:49:12;;;;;;;7.45;6.70;;;;;;;;;;5050025;28;20064;-76
2021/07/16 10:51:39;;;;;;;7.22;6.53;;;;;;;;;;5051223;28;20052;-76
2021/07/16 10:54:09;;;;;;;7.13;6.43;;;;;;;;;;5058238;28;20036;-76
2021/07/16 10:56:38;;;;;;;7.13;6.50;;;;;;;;;;5058217;28;20033;-75
2021/07/16 10:59:04;;;;;;;6.50;5.90;;;;;;;;;;5060279;28;20066;-75
2021/07/16 11:01:33;;;;;;;7.45;6.75;;;;;;;;;;5055970;28;20118;-76
2021/07/16 11:04:01;;;;;;;7.13;6.43;;;;;;;;;;5052744;28;20060;-76
2021/07/16 11:06:48;;;;;;;8.57;7.03;;;;;;;;;;5058579;28;20056;-77
2021/07/16 11:09:31;;;;;;;6.70;5.93;;;;;;;;;;5050589;28;20610;-75
2021/07/16 11:12:17;;;;;;;7.28;6.50;;;;;;;;;;5059314;28;20049;-77
2021/07/16 11:14:44;;;;;;;8.25;7.10;;;;;;;;;;5051471;28;20624;-77
2021/07/16 11:17:11;;;;;;;7.82;7.03;;;;;;;;;;5044593;28;20083;-77
2021/07/16 11:19:38;;;;;;;7.57;6.80;;;;;;;;;;5057843;28;20193;-77
2021/07/16 11:22:05;;;;;;;7.22;6.53;;;;;;;;;;5049078;28;20056;-77
2021/07/16 11:24:32;;;;;;;7.47;6.70;;;;;;;;;;5056880;28;20466;-77
2021/07/16 11:27:07;;;;;;;7.25;6.30;;;;;;;;;;5055393;28;20210;-76
2021/07/16 11:29:41;;;;;;;7.82;7.10;;;;;;;;;;5049613;28;20057;-77
2021/07/16 11:32:13;;;;;;;7.65;6.80;;;;;;;;;;5051650;28;20064;-76
2021/07/16 11:34:48;;;;;;;7.35;6.65;;;;;;;;;;5053959;28;20309;-76
2021/07/16 11:37:26;;;;;;;7.65;6.80;;;;;;;;;;5057001;28;20060;-74
2021/07/16 11:39:54;;;;;;;8.20;7.35;;;;;;;;;;5051750;28;20206;-76
2021/07/16 11:42:20;;;;;;;9.02;7.07;;;;;;;;;;5047528;28;20067;-76
2021/07/16 11:44:48;;;;;;;7.38;6.68;;;;;;;;;;5054241;28;20048;-76
2021/07/16 11:47:27;;;;;;;7.95;7.15;;;;;;;;;;5034583;28;20111;-76
2021/07/16 11:49:55;;;;;;;8.15;7.35;;;;;;;;;;5058067;28;20600;-75
2021/07/16 11:52:25;;;;;;;8.15;6.78;;;;;;;;;;5048546;28;20735;-74
2021/07/16 11:54:52;;;;;;;7.68;6.68;;;;;;;;;;5052434;28;20053;-76
2021/07/16 11:57:19;;;;;;;7.95;7.22;;;;;;;;;;5055601;28;20496;-75
2021/07/16 11:59:50;;;;;;;7.97;7.18;;;;;;;;;;5050096;28;20040;-76
2021/07/16 12:02:18;;;;;;;7.78;6.97;;;;;;;;;;5051457;28;20072;-75
2021/07/16 12:04:45;;;;;;;8.15;7.35;;;;;;;;;;5051765;28;20061;-76
2021/07/16 12:07:12;;;;;;;8.18;7.13;;;;;;;;;;5056580;28;20125;-77
2021/07/16 12:09:46;;;;;;;8.52;7.63;;;;;;;;;;5055161;28;20060;-77
2021/07/16 12:12:13;;;;;;;7.85;7.03;;;;;;;;;;5057625;28;20056;-76
2021/07/16 12:14:46;;;;;;;10.00;7.80;;;;;;;;;;5061770;28;22159;-77
2021/07/16 12:17:13;;;;;;;7.95;7.15;;;;;;;;;;5056153;28;20048;-76
2021/07/16 12:19:40;;;;;;;8.38;7.57;;;;;;;;;;5056325;28;21589;-77
2021/07/16 12:22:07;;;;;;;8.02;7.32;;;;;;;;;;5058079;28;20072;-77
2021/07/16 12:24:36;;;;;;;8.80;7.78;;;;;;;;;;5055357;28;20445;-77
2021/07/16 12:27:06;;;;;;;8.75;7.63;;;;;;;;;;5057418;28;20048;-75
2021/07/16 12:29:36;;;;;;;10.77;7.50;;;;;;;;;;5046074;28;20057;-76
2021/07/16 12:32:04;;;;;;;8.43;7.63;;;;;;;;;;5049347;28;20056;-76
2021/07/16 12:34:30;;;;;;;8.77;7.90;;;;;;;;;;5051474;28;20056;-78
2021/07/16 12:37:07;;;;;;;7.80;7.00;;;;;;;;;;5058492;28;20052;-76
2021/07/16 12:39:34;;;;;;;9.18;7.75;;;;;;;;;;5057231;28;20083;-77
2021/07/16 12:42:18;;;;;;;8.82;7.93;;;;;;;;;;5064882;28;20138;-77
2021/07/16 12:45:03;;;;;;;9.05;7.65;;;;;;;;;;5052465;28;20855;-77
2021/07/16 12:47:30;;;;;;;8.70;7.60;;;;;;;;;;5057880;28;20067;-77
2021/07/16 12:50:13;;;;;;;8.93;7.90;;;;;;;;;;5060022;28;20069;-77
2021/07/16 12:52:39;;;;;;;8.65;7.80;;;;;;;;;;5066573;28;20064;-77
2021/07/16 12:55:12;;;;;;;8.18;7.38;;;;;;;;;;5058983;28;20544;-77
2021/07/16 12:57:39;;;;;;;10.70;7.82;;;;;;;;;;5057935;28;20075;-77
2021/07/16 13:00:16;;;;;;;8.73;7.57;;;;;;;;;;5059515;28;20476;-77
2021/07/16 13:02:44;;;;;;;9.23;8.32;;;;;;;;;;5062285;28;20524;-77
2021/07/16 13:05:10;;;;;;;9.07;7.85;;;;;;;;;;5056118;28;20071;-77
2021/07/16 13:07:38;;;;;;;8.90;8.00;;;;;;;;;;5048732;28;20434;-77
2021/07/16 13:10:21;;;;;;;8.40;7.60;;;;;;;;;;5061067;28;20599;-77
2021/07/16 13:12:47;;;;;;;8.32;7.53;;;;;;;;;;5059711;28;20452;-76
2021/07/16 13:15:15;;;;;;;8.95;8.05;;;;;;;;;;5064664;28;20039;-76
2021/07/16 13:17:41;;;;;;;8.25;7.45;;;;;;;;;;5040265;28;20325;-76
2021/07/16 13:20:09;;;;;;;9.57;8.68;;;;;;;;;;5059708;28;20036;-76
2021/07/16 13:22:37;;;;;;;10.30;8.57;;;;;;;;;;5057266;28;20064;-76
2021/07/16 13:25:05;;;;;;;9.30;8.20;;;;;;;;;;5064529;28;20131;-76
2021/07/16 13:27:31;;;;;;;9.63;8.63;;;;;;;;;;5054073;28;20638;-76
2021/07/16 13:29:58;;;;;;;9.45;7.90;;;;;;;;;;5055249;28;20079;-76
2021/07/16 13:32:26;;;;;;;8.77;7.82;;;;;;;;;;5058669;28;20045;-75
2021/07/16 13:34:52;;;;;;;9.27;8.30;;;;;;;;;;5058301;28;20079;-77
2021/07/16 13:37:19;;;;;;;10.05;9.02;;;;;;;;;;5063013;28;20068;-77
2021/07/16 13:39:45;;;;;;;9.82;8.82;;;;;;;;;;5051713;28;20057;-77
2021/07/16 13:42:12;;;;;;;9.07;8.02;;;;;;;;;;5065582;28;20048;-77
2021/07/16 13:44:40;;;;;;;9.98;8.90;;;;;;;;;;5062240;28;20063;-77
2021/07/16 13:47:06;;;;;;;13.70;8.38;;;;;;;;;;5059978;28;20063;-76
2021/07/16 13:49:32;;;;;;;9.40;8.50;;;;;;;;;;5056287;28;20071;-81
2021/07/16 13:51:59;;;;;;;11.50;8.40;;;;;;;;;;5054436;28;20366;-75
2021/07/16 13:54:27;;;;;;;17.10;8.60;;;;;;;;;;5052135;28;20061;-75
2021/07/16 13:56:54;;;;;;;11.07;8.55;;;;;;;;;;5057374;28;20653;-75
2021/07/16 13:59:22;;;;;;;9.50;8.07;;;;;;;;;;5050445;28;20470;-75
2021/07/16 14:01:50;;;;;;;10.25;9.20;;;;;;;;;;5060307;28;20609;-75
2021/07/16 14:04:17;;;;;;;10.15;9.15;;;;;;;;;;5054145;28;20508;-75
2021/07/16 14:06:43;;;;;;;10.02;9.05;;;;;;;;;;5055321;28;20061;-75
2021/07/16 14:09:10;;;;;;;9.70;8.80;;;;;;;;;;5060068;28;20052;-75
2021/07/16 14:11:36;;;;;;;9.13;8.23;;;;;;;;;;5051557;28;20071;-76
2021/07/16 14:14:03;;;;;;;9.85;8.85;;;;;;;;;;5053218;28;20048;-75
2021/07/16 14:16:34;;;;;;;9.48;8.57;;;;;;;;;;5054376;28;20064;-75
2021/07/16 14:19:02;;;;;;;9.02;8.13;;;;;;;;;;5052460;28;20107;-75
2021/07/16 14:21:28;;;;;;;9.50;8.32;;;;;;;;;;5053302;28;20078;-76
2021/07/16 14:23:55;;;;;;;9.40;8.40;;;;;;;;;;5049942;28;20099;-75
2021/07/16 14:26:22;;;;;;;9.13;8.23;;;;;;;;;;5052757;28;20067;-75
2021/07/16 14:28:48;;;;;;;10.05;9.05;;;;;;;;;;5051565;28;20064;-75